Decoded Metar for LEHC (HUESCA in SPAIN) (IATA:N/A) | Meteo·Mobile Aviation Weather
aviador You're here:

LEHC Decoded Metar

HUESCA in SPAIN
Report Time2019-10-19 22:30:00
UTC Time2019-10-19 23:05:12
Flight Rules vfr VFR
Wind130° at 06 kt
W.Decomp.*RWY 12: 5.9 kt HW 1.1 kt RCW
Visibility9999 m
Phenomena:N/A
Clouds:Scattered 070 Hf
Expected CloudBase > 1,200 ft AGL from Temp-Dew spread
CeilingNone
Temp16°C (ISA +5)
Dew Point13°C (83% RH)
AAT14.8°C
QNH1006 hPa
Density Alt2,743 ft
Elevation1,768 ft
Report Wrong Elevation
Raw Report
METAR LEHC 192230Z AUTO 13006KT 080V170 9999 SCT070 16/13 Q1006=

Extra information for LEHC:More info

Metar Taf Metar & Taf Last 4 Metars F.Rules Stats Wind Profile Meteogram Temp Stats Airport Information Weather charts Add Link Nearby VenuesMetar ALERT Operation Metar Decoded Social comments